createdAt,value
2019-02-27T00:01:49.928Z,2.54
2019-02-27T00:04:21.683Z,2.52
2019-02-27T00:06:52.817Z,2.50
2019-02-27T00:09:24.062Z,2.49
2019-02-27T00:11:55.318Z,2.45
2019-02-27T00:14:28.813Z,2.40
2019-02-27T00:16:59.959Z,2.36
2019-02-27T00:19:32.308Z,2.31
2019-02-27T00:22:03.887Z,2.28
2019-02-27T00:24:35.392Z,2.26
2019-02-27T00:27:06.769Z,2.26
2019-02-27T00:29:38.338Z,2.26
2019-02-27T00:32:09.698Z,2.24
2019-02-27T00:34:41.365Z,2.23
2019-02-27T00:37:12.636Z,2.21
2019-02-27T00:39:44.258Z,2.14
2019-02-27T00:42:19.478Z,2.12
2019-02-27T00:44:49.058Z,2.08
2019-02-27T00:47:20.775Z,2.08
2019-02-27T00:49:52.103Z,2.06
2019-02-27T00:52:23.350Z,2.04
2019-02-27T00:54:55.063Z,2.05
2019-02-27T00:57:26.519Z,2.01
2019-02-27T00:59:58.071Z,2.00
2019-02-27T01:02:29.288Z,1.98
2019-02-27T01:05:00.811Z,1.99
2019-02-27T01:07:32.619Z,1.96
2019-02-27T01:10:04.490Z,1.90
2019-02-27T01:12:35.940Z,1.84
2019-02-27T01:15:10.625Z,1.76
2019-02-27T01:17:40.773Z,1.70
2019-02-27T01:20:12.719Z,1.62
2019-02-27T01:22:44.638Z,1.57
2019-02-27T01:25:16.862Z,1.52
2019-02-27T01:27:48.118Z,1.43
2019-02-27T01:30:19.400Z,1.33
2019-02-27T01:32:50.698Z,1.29
2019-02-27T01:35:22.221Z,1.22
2019-02-27T01:37:55.130Z,1.06
2019-02-27T01:40:26.618Z,0.92
2019-02-27T01:42:57.949Z,0.82
2019-02-27T01:45:29.444Z,0.71
2019-02-27T01:48:00.773Z,0.57
2019-02-27T01:50:33.968Z,0.43
2019-02-27T01:53:07.342Z,0.39
2019-02-27T01:55:38.955Z,0.33
2019-02-27T01:58:10.371Z,0.34
2019-02-27T02:00:42.010Z,0.37
2019-02-27T02:03:14.287Z,0.41
2019-02-27T02:05:46.300Z,0.47
2019-02-27T02:08:18.078Z,0.42
2019-02-27T02:10:49.478Z,0.42
2019-02-27T02:13:35.752Z,0.49
2019-02-27T02:16:34.952Z,0.55
2019-02-27T02:19:39.423Z,0.55
2019-02-27T02:22:54.419Z,0.60
2019-02-27T02:26:06.031Z,0.54
2019-02-27T02:29:14.009Z,0.57
2019-02-27T02:32:10.220Z,0.59
2019-02-27T02:35:33.701Z,0.56
2019-02-27T02:38:30.428Z,0.41
2019-02-27T02:41:51.352Z,0.23
2019-02-27T02:45:02.672Z,0.17
2019-02-27T02:48:03.126Z,-0.01
2019-02-27T02:51:02.745Z,0.00
2019-02-27T02:54:04.310Z,-0.13
2019-02-27T02:57:17.234Z,-0.15
2019-02-27T03:00:06.974Z,-0.11
2019-02-27T03:03:17.537Z,0.00
2019-02-27T03:06:36.134Z,-0.04
2019-02-27T03:09:48.261Z,-0.10
2019-02-27T03:13:05.804Z,-0.10
2019-02-27T03:15:52.009Z,-0.11
2019-02-27T03:19:24.948Z,-0.11
2019-02-27T03:22:40.478Z,-0.12
2019-02-27T03:25:26.629Z,-0.14
2019-02-27T03:28:33.370Z,-0.21
2019-02-27T03:31:26.256Z,-0.24
2019-02-27T03:34:27.332Z,-0.23
2019-02-27T03:37:39.180Z,-0.17
2019-02-27T03:40:45.040Z,-0.14
2019-02-27T03:43:51.272Z,-0.11
2019-02-27T03:46:49.481Z,-0.07
2019-02-27T03:49:39.688Z,-0.07
2019-02-27T03:52:37.371Z,-0.07
2019-02-27T03:55:46.801Z,-0.06
2019-02-27T03:59:06.039Z,-0.06
2019-02-27T04:02:05.779Z,-0.05
2019-02-27T04:04:49.290Z,-0.07
2019-02-27T04:07:46.487Z,-0.06
2019-02-27T04:10:17.760Z,-0.06
2019-02-27T04:12:51.621Z,-0.07
2019-02-27T04:15:21.662Z,-0.05
2019-02-27T04:17:52.225Z,-0.03
2019-02-27T04:20:23.462Z,-0.04
2019-02-27T04:22:54.942Z,-0.01
2019-02-27T04:25:31.078Z,0.00
2019-02-27T04:27:58.974Z,-0.02
2019-02-27T04:30:30.120Z,-0.03
2019-02-27T04:33:01.489Z,-0.01
2019-02-27T04:35:34.272Z,-0.01
2019-02-27T04:38:06.750Z,0.01
2019-02-27T04:40:37.838Z,0.01
2019-02-27T04:43:08.928Z,0.01
2019-02-27T04:45:40.098Z,-0.02
2019-02-27T04:48:11.310Z,-0.03
2019-02-27T04:50:44.137Z,-0.04
2019-02-27T04:53:15.741Z,-0.08
2019-02-27T04:55:47.974Z,-0.08
2019-02-27T04:58:19.768Z,-0.08
2019-02-27T05:00:50.800Z,-0.09
2019-02-27T05:03:21.999Z,-0.17
2019-02-27T05:05:53.410Z,-0.16
2019-02-27T05:08:27.164Z,-0.19
2019-02-27T05:10:58.400Z,-0.22
2019-02-27T05:13:29.619Z,-0.25
2019-02-27T05:16:00.800Z,-0.27
2019-02-27T05:18:31.969Z,-0.31
2019-02-27T05:21:03.117Z,-0.30
2019-02-27T05:23:34.308Z,-0.29
2019-02-27T05:26:05.791Z,-0.29
2019-02-27T05:28:38.138Z,-0.30
2019-02-27T05:31:10.608Z,-0.31
2019-02-27T05:33:41.728Z,-0.33
2019-02-27T05:36:12.958Z,-0.33
2019-02-27T05:38:44.187Z,-0.33
2019-02-27T05:41:15.318Z,-0.33
2019-02-27T05:43:48.558Z,-0.33
2019-02-27T05:46:19.393Z,-0.29
2019-02-27T05:48:50.966Z,-0.27
2019-02-27T05:51:23.540Z,-0.24
2019-02-27T05:53:56.106Z,-0.26
2019-02-27T05:56:27.608Z,-0.24
2019-02-27T05:58:58.820Z,-0.23
2019-02-27T06:01:30.209Z,-0.19
2019-02-27T06:04:01.528Z,-0.15
2019-02-27T06:06:32.952Z,-0.02
2019-02-27T06:09:04.300Z,-0.02
2019-02-27T06:11:36.131Z,0.22
2019-02-27T06:14:07.332Z,0.33
2019-02-27T06:16:40.920Z,0.33
2019-02-27T06:19:12.219Z,0.90
2019-02-27T06:21:43.408Z,0.97
2019-02-27T06:24:15.440Z,0.74
2019-02-27T06:26:46.720Z,0.70
2019-02-27T06:29:17.993Z,0.74
2019-02-27T06:31:49.227Z,0.64
2019-02-27T06:34:22.305Z,0.59
2019-02-27T06:36:53.349Z,0.56
2019-02-27T06:39:24.600Z,0.59
2019-02-27T06:41:55.850Z,0.61
2019-02-27T06:44:27.350Z,0.66
2019-02-27T06:46:58.622Z,0.72
2019-02-27T06:49:29.610Z,0.80
2019-02-27T06:52:00.881Z,0.86
2019-02-27T06:54:32.130Z,0.96
2019-02-27T06:57:07.496Z,1.04
2019-02-27T06:59:36.342Z,1.18
2019-02-27T07:02:07.650Z,1.29
2019-02-27T07:04:39.648Z,1.39
2019-02-27T07:07:11.610Z,1.48
2019-02-27T07:09:43.249Z,1.61
2019-02-27T07:12:16.110Z,1.72
2019-02-27T07:14:47.191Z,1.87
2019-02-27T07:17:19.020Z,2.05
2019-02-27T07:19:50.430Z,2.23
2019-02-27T07:22:21.840Z,2.36
2019-02-27T07:24:53.040Z,2.50
2019-02-27T07:27:24.668Z,2.65
2019-02-27T07:29:56.220Z,2.81
2019-02-27T07:32:31.370Z,2.93
2019-02-27T07:35:00.311Z,3.14
2019-02-27T07:37:31.600Z,3.36
2019-02-27T07:40:08.015Z,3.60
2019-02-27T07:42:36.357Z,3.81
2019-02-27T07:45:10.727Z,3.94
2019-02-27T07:47:41.633Z,4.05
2019-02-27T07:50:14.530Z,4.12
2019-02-27T07:52:45.907Z,4.32
2019-02-27T07:55:21.866Z,4.46
2019-02-27T07:58:02.660Z,4.61
2019-02-27T08:00:34.060Z,4.73
2019-02-27T08:03:09.071Z,4.81
2019-02-27T08:05:38.351Z,4.97
2019-02-27T08:08:09.850Z,5.14
2019-02-27T08:10:41.500Z,5.42
2019-02-27T08:13:12.728Z,5.62
2019-02-27T08:15:44.080Z,5.89
2019-02-27T08:18:15.450Z,6.05
2019-02-27T08:20:48.106Z,6.34
2019-02-27T08:23:19.431Z,6.53
2019-02-27T08:25:51.090Z,6.85
2019-02-27T08:28:22.330Z,7.33
2019-02-27T08:30:53.712Z,7.85
2019-02-27T08:33:24.890Z,7.92
2019-02-27T08:35:57.270Z,8.11
2019-02-27T08:38:28.391Z,7.53
2019-02-27T08:40:59.811Z,6.94
2019-02-27T08:43:31.722Z,6.44
2019-02-27T08:46:03.169Z,6.17
2019-02-27T08:48:34.421Z,6.33
2019-02-27T08:51:08.622Z,6.61
2019-02-27T08:53:38.610Z,7.30
2019-02-27T08:56:12.185Z,8.04
2019-02-27T08:58:42.730Z,8.49
2019-02-27T09:01:14.190Z,8.76
2019-02-27T09:03:45.440Z,9.12
2019-02-27T09:06:18.627Z,9.34
2019-02-27T09:08:49.710Z,9.79
2019-02-27T09:11:20.871Z,9.99
2019-02-27T09:13:52.130Z,10.23
2019-02-27T09:16:26.036Z,10.28
2019-02-27T09:18:56.140Z,10.56
2019-02-27T09:21:28.538Z,10.53
2019-02-27T09:24:00.430Z,10.82
2019-02-27T09:26:36.057Z,11.11
2019-02-27T09:29:05.430Z,11.56
2019-02-27T09:31:37.766Z,11.78
2019-02-27T09:34:09.922Z,12.02
2019-02-27T09:36:43.264Z,11.89
2019-02-27T09:39:14.140Z,11.92
2019-02-27T09:41:46.926Z,12.28
2019-02-27T09:44:18.471Z,12.15
2019-02-27T09:46:52.365Z,12.59
2019-02-27T09:49:23.322Z,12.44
2019-02-27T09:51:56.300Z,12.38
2019-02-27T09:54:27.522Z,12.15
2019-02-27T09:57:02.096Z,12.29
2019-02-27T09:59:32.025Z,12.43
2019-02-27T10:02:06.331Z,12.95
2019-02-27T10:04:37.330Z,13.05
2019-02-27T10:07:08.497Z,12.82
2019-02-27T10:09:40.389Z,12.51
2019-02-27T10:12:11.760Z,12.09
2019-02-27T10:14:43.190Z,12.27
2019-02-27T10:17:14.460Z,12.41
2019-02-27T10:19:45.610Z,12.21
2019-02-27T10:22:17.852Z,11.87
2019-02-27T10:24:49.705Z,11.29
2019-02-27T10:27:20.953Z,12.07
2019-02-27T10:29:52.310Z,11.48
2019-02-27T10:32:23.450Z,11.07
2019-02-27T10:34:54.700Z,11.47
2019-02-27T10:37:26.035Z,11.99
2019-02-27T10:39:57.350Z,12.33
2019-02-27T10:42:28.520Z,12.33
2019-02-27T10:44:59.920Z,12.52
2019-02-27T10:47:33.659Z,13.27
2019-02-27T10:50:04.190Z,13.51
2019-02-27T10:52:35.450Z,13.47
2019-02-27T10:55:07.280Z,13.47
2019-02-27T10:57:38.645Z,13.75
2019-02-27T11:00:19.111Z,14.13
2019-02-27T11:02:52.570Z,14.44
2019-02-27T11:05:23.850Z,14.67
2019-02-27T11:07:55.276Z,14.80
2019-02-27T11:10:26.752Z,14.13
2019-02-27T11:12:58.183Z,13.46
2019-02-27T11:15:29.590Z,13.01
2019-02-27T11:18:04.415Z,12.27
2019-02-27T11:20:33.822Z,11.93
2019-02-27T11:23:07.076Z,11.39
2019-02-27T11:25:38.620Z,11.18
2019-02-27T11:28:09.991Z,10.94
2019-02-27T11:30:41.203Z,11.08
2019-02-27T11:33:24.721Z,11.10
2019-02-27T11:35:45.967Z,10.95
2019-02-27T11:38:17.310Z,10.86
2019-02-27T11:40:48.490Z,10.83
2019-02-27T11:43:19.890Z,10.75
2019-02-27T11:45:50.978Z,11.02
2019-02-27T11:48:22.865Z,10.94
2019-02-27T11:50:54.643Z,10.87
2019-02-27T11:53:25.970Z,10.83
2019-02-27T11:55:57.332Z,10.64
2019-02-27T11:58:28.790Z,10.56
2019-02-27T12:01:00.071Z,10.65
2019-02-27T12:03:31.399Z,10.75
2019-02-27T12:06:05.276Z,10.64
2019-02-27T12:08:35.620Z,10.55
2019-02-27T12:11:06.991Z,10.58
2019-02-27T12:13:38.240Z,11.07
2019-02-27T12:16:10.708Z,11.26
2019-02-27T12:18:42.172Z,11.21
2019-02-27T12:21:13.451Z,11.16
2019-02-27T12:23:44.903Z,11.36
2019-02-27T12:26:16.090Z,11.14
2019-02-27T12:28:47.604Z,10.95
2019-02-27T12:31:18.911Z,10.73
2019-02-27T12:33:50.190Z,10.67
2019-02-27T12:36:21.400Z,11.32
2019-02-27T12:38:52.759Z,11.97
2019-02-27T12:41:23.950Z,12.43
2019-02-27T12:43:55.185Z,12.63
2019-02-27T12:46:26.380Z,13.25
2019-02-27T12:48:57.600Z,14.02
2019-02-27T12:51:28.800Z,14.47
2019-02-27T12:54:00.070Z,14.82
2019-02-27T12:56:31.351Z,14.87
2019-02-27T12:59:02.618Z,14.85
2019-02-27T13:01:33.890Z,14.71
2019-02-27T13:04:05.110Z,14.97
2019-02-27T13:06:37.396Z,15.32
2019-02-27T13:09:07.568Z,15.49
2019-02-27T13:11:41.653Z,15.54
2019-02-27T13:14:12.170Z,15.81
2019-02-27T13:16:46.398Z,15.62
2019-02-27T13:19:17.182Z,15.66
2019-02-27T13:21:48.430Z,15.42
2019-02-27T13:24:19.650Z,15.44
2019-02-27T13:26:50.850Z,15.49
2019-02-27T13:29:22.761Z,15.61
2019-02-27T13:31:54.000Z,15.50
2019-02-27T13:34:25.290Z,15.52
2019-02-27T13:36:56.640Z,15.58
2019-02-27T13:39:29.090Z,15.65
2019-02-27T13:42:00.330Z,15.66
2019-02-27T13:44:34.440Z,15.83
2019-02-27T13:47:04.440Z,15.59
2019-02-27T13:49:35.769Z,15.54
2019-02-27T13:52:07.032Z,15.60
2019-02-27T13:54:38.291Z,15.65
2019-02-27T13:57:09.540Z,15.57
2019-02-27T13:59:42.232Z,15.72
2019-02-27T14:02:13.701Z,15.65
2019-02-27T14:04:44.969Z,15.81
2019-02-27T14:07:18.610Z,15.87
2019-02-27T14:09:49.330Z,15.34
2019-02-27T14:12:20.630Z,14.62
2019-02-27T14:14:53.319Z,13.98
2019-02-27T14:17:24.860Z,14.07
2019-02-27T14:19:56.080Z,14.53
2019-02-27T14:22:27.225Z,14.86
2019-02-27T14:24:59.490Z,15.27
2019-02-27T14:27:30.772Z,15.30
2019-02-27T14:30:03.762Z,15.26
2019-02-27T14:32:36.353Z,15.28
2019-02-27T14:35:07.770Z,15.29
2019-02-27T14:37:38.940Z,15.22
2019-02-27T14:40:12.520Z,15.17
2019-02-27T14:42:43.870Z,15.19
2019-02-27T14:45:17.090Z,15.12
2019-02-27T14:47:48.370Z,15.02
2019-02-27T14:50:21.620Z,14.97
2019-02-27T14:52:52.922Z,14.52
2019-02-27T14:55:24.358Z,13.84
2019-02-27T14:57:55.660Z,13.03
2019-02-27T15:00:28.881Z,12.72
2019-02-27T15:03:00.499Z,12.47
2019-02-27T15:05:32.350Z,12.23
2019-02-27T15:08:03.770Z,12.06
2019-02-27T15:10:40.237Z,11.95
2019-02-27T15:13:08.360Z,11.83
2019-02-27T15:15:43.320Z,11.78
2019-02-27T15:18:14.033Z,11.73
2019-02-27T15:20:45.750Z,11.74
2019-02-27T15:23:18.650Z,11.60
2019-02-27T15:25:50.180Z,11.39
2019-02-27T15:28:21.570Z,11.15
2019-02-27T15:30:53.020Z,11.03
2019-02-27T15:33:24.362Z,10.90
2019-02-27T15:35:56.384Z,10.75
2019-02-27T15:38:26.851Z,10.60
2019-02-27T15:41:02.391Z,10.40
2019-02-27T15:43:31.720Z,10.36
2019-02-27T15:46:02.890Z,10.26
2019-02-27T15:48:34.399Z,10.16
2019-02-27T15:51:05.910Z,10.11
2019-02-27T15:53:37.179Z,10.05
2019-02-27T15:56:08.894Z,10.01
2019-02-27T15:58:42.549Z,9.95
2019-02-27T16:01:14.852Z,9.91
2019-02-27T16:03:46.719Z,9.88
2019-02-27T16:06:18.010Z,9.85
2019-02-27T16:08:49.390Z,9.78
2019-02-27T16:11:20.611Z,9.74
2019-02-27T16:13:51.891Z,9.68
2019-02-27T16:16:23.522Z,9.65
2019-02-27T16:18:54.840Z,9.63
2019-02-27T16:21:26.061Z,9.62
2019-02-27T16:23:59.371Z,9.60
2019-02-27T16:26:30.440Z,9.61
2019-02-27T16:29:01.890Z,9.62
2019-02-27T16:31:33.870Z,9.58
2019-02-27T16:34:05.260Z,9.57
2019-02-27T16:36:37.252Z,9.57
2019-02-27T16:39:08.599Z,9.57
2019-02-27T16:41:41.476Z,9.55
2019-02-27T16:44:12.581Z,9.57
2019-02-27T16:46:46.261Z,9.55
2019-02-27T16:49:17.530Z,9.56
2019-02-27T16:51:48.801Z,9.57
2019-02-27T16:54:20.021Z,9.53
2019-02-27T16:56:51.406Z,9.43
2019-02-27T16:59:22.671Z,9.30
2019-02-27T17:01:53.871Z,9.25
2019-02-27T17:04:25.000Z,9.18
2019-02-27T17:06:56.440Z,9.10
2019-02-27T17:09:28.380Z,9.04
2019-02-27T17:12:00.110Z,8.98
2019-02-27T17:14:31.470Z,8.94
2019-02-27T17:17:03.021Z,8.91
2019-02-27T17:19:36.527Z,8.88
2019-02-27T17:22:07.219Z,8.81
2019-02-27T17:24:38.497Z,8.73
2019-02-27T17:27:12.521Z,8.68
2019-02-27T17:29:42.723Z,8.59
2019-02-27T17:32:14.112Z,8.56
2019-02-27T17:34:47.685Z,8.54
2019-02-27T17:37:18.771Z,8.52
2019-02-27T17:39:50.551Z,8.47
2019-02-27T17:42:21.871Z,8.42
2019-02-27T17:44:53.121Z,8.33
2019-02-27T17:47:28.600Z,8.28
2019-02-27T17:49:58.259Z,8.22
2019-02-27T17:52:29.511Z,8.16
2019-02-27T17:55:03.568Z,8.16
2019-02-27T17:57:34.700Z,8.13
2019-02-27T18:00:07.188Z,8.07
2019-02-27T18:02:40.276Z,8.03
2019-02-27T18:05:11.667Z,7.96
2019-02-27T18:07:43.492Z,7.97
2019-02-27T18:10:15.371Z,7.90
2019-02-27T18:12:46.731Z,7.80
2019-02-27T18:15:20.324Z,7.74
2019-02-27T18:17:51.064Z,7.67
2019-02-27T18:20:25.519Z,7.67
2019-02-27T18:22:55.772Z,7.65
2019-02-27T18:25:28.451Z,7.60
2019-02-27T18:27:59.964Z,7.51
2019-02-27T18:30:31.255Z,7.44
2019-02-27T18:33:02.570Z,7.39
2019-02-27T18:35:33.910Z,7.38
2019-02-27T18:38:05.330Z,7.39
2019-02-27T18:40:36.680Z,7.38
2019-02-27T18:43:10.343Z,7.39
2019-02-27T18:45:41.560Z,7.34
2019-02-27T18:48:12.820Z,7.36
2019-02-27T18:50:44.366Z,7.33
2019-02-27T18:53:15.921Z,7.27
2019-02-27T18:55:48.641Z,7.22
2019-02-27T18:58:22.020Z,7.22
2019-02-27T19:00:54.848Z,7.18
2019-02-27T19:03:28.580Z,7.15
2019-02-27T19:06:03.584Z,7.10
2019-02-27T19:08:36.421Z,7.11
2019-02-27T19:11:07.781Z,7.11
2019-02-27T19:13:39.023Z,7.06
2019-02-27T19:16:10.847Z,7.02
2019-02-27T19:18:42.121Z,6.97
2019-02-27T19:21:13.881Z,6.94
2019-02-27T19:23:45.203Z,6.90
2019-02-27T19:26:16.720Z,6.87
2019-02-27T19:28:48.190Z,6.84
2019-02-27T19:31:19.510Z,6.80
2019-02-27T19:33:50.771Z,6.74
2019-02-27T19:36:22.011Z,6.70
2019-02-27T19:38:53.330Z,6.65
2019-02-27T19:41:24.551Z,6.58
2019-02-27T19:43:56.054Z,6.50
2019-02-27T19:46:27.540Z,6.50
2019-02-27T19:49:00.860Z,6.50
2019-02-27T19:51:31.862Z,6.49
2019-02-27T19:54:03.179Z,6.48
2019-02-27T19:56:35.497Z,6.45
2019-02-27T19:59:07.651Z,6.42
2019-02-27T20:01:46.997Z,6.39
2019-02-27T20:04:13.682Z,6.32
2019-02-27T20:06:44.900Z,6.30
2019-02-27T20:09:18.994Z,6.23
2019-02-27T20:11:46.649Z,6.15
2019-02-27T20:14:17.139Z,6.11
2019-02-27T20:16:47.229Z,6.09
2019-02-27T20:19:22.379Z,6.07
2019-02-27T20:21:48.812Z,6.08
2019-02-27T20:24:19.030Z,6.07
2019-02-27T20:26:53.838Z,6.04
2019-02-27T20:29:20.849Z,6.04
2019-02-27T20:31:51.478Z,6.02
2019-02-27T20:34:23.499Z,5.98
2019-02-27T20:36:53.561Z,5.96
2019-02-27T20:39:24.552Z,5.93
2019-02-27T20:41:55.599Z,5.90
2019-02-27T20:44:25.693Z,5.96
2019-02-27T20:46:55.789Z,5.95
2019-02-27T20:49:25.752Z,5.95
2019-02-27T20:51:55.959Z,5.94
2019-02-27T20:54:25.993Z,5.87
2019-02-27T20:56:56.769Z,5.82
2019-02-27T20:59:27.370Z,5.74
2019-02-27T21:01:57.421Z,5.69
2019-02-27T21:04:28.114Z,5.67
2019-02-27T21:06:58.199Z,5.64
2019-02-27T21:09:28.279Z,5.63
2019-02-27T21:11:58.289Z,5.61
2019-02-27T21:14:28.203Z,5.55
2019-02-27T21:16:58.234Z,5.56
2019-02-27T21:19:28.589Z,5.59
2019-02-27T21:21:58.848Z,5.63
2019-02-27T21:24:28.829Z,5.67
2019-02-27T21:26:58.869Z,5.65
2019-02-27T21:29:29.000Z,5.62
2019-02-27T21:32:01.504Z,5.57
2019-02-27T21:34:32.349Z,5.56
2019-02-27T21:37:02.269Z,5.58
2019-02-27T21:39:32.541Z,5.57
2019-02-27T21:42:02.748Z,5.56
2019-02-27T21:44:32.799Z,5.53
2019-02-27T21:47:02.799Z,5.49
2019-02-27T21:49:33.309Z,5.47
2019-02-27T21:52:03.579Z,5.43
2019-02-27T21:54:38.287Z,5.41
2019-02-27T21:57:05.209Z,5.40
2019-02-27T21:59:36.383Z,5.40
2019-02-27T22:02:06.979Z,5.42
2019-02-27T22:04:37.089Z,5.44
2019-02-27T22:07:07.059Z,5.46
2019-02-27T22:09:37.269Z,5.46
2019-02-27T22:12:07.319Z,5.50
2019-02-27T22:14:37.480Z,5.52
2019-02-27T22:17:07.520Z,5.51
2019-02-27T22:19:37.523Z,5.48
2019-02-27T22:22:08.125Z,5.42
2019-02-27T22:24:38.809Z,5.41
2019-02-27T22:27:09.180Z,5.42
2019-02-27T22:29:40.498Z,5.47
2019-02-27T22:32:12.098Z,5.46
2019-02-27T22:34:42.159Z,5.42
2019-02-27T22:37:12.330Z,5.39
2019-02-27T22:39:42.229Z,5.38
2019-02-27T22:42:14.758Z,5.36
2019-02-27T22:44:43.928Z,5.39
2019-02-27T22:47:13.888Z,5.42
2019-02-27T22:49:43.878Z,5.44
2019-02-27T22:52:14.010Z,5.44
2019-02-27T22:54:45.279Z,5.44
2019-02-27T22:57:15.291Z,5.43
2019-02-27T22:59:45.148Z,5.41
2019-02-27T23:02:15.542Z,5.37
2019-02-27T23:04:45.729Z,5.38
2019-02-27T23:07:20.578Z,5.42
2019-02-27T23:09:47.840Z,5.43
2019-02-27T23:12:19.459Z,5.43
2019-02-27T23:14:50.219Z,5.42
2019-02-27T23:17:21.581Z,5.43
2019-02-27T23:19:51.641Z,5.42
2019-02-27T23:22:21.781Z,5.45
2019-02-27T23:24:51.910Z,5.48
2019-02-27T23:28:02.065Z,5.51
2019-02-27T23:31:23.378Z,5.50
2019-02-27T23:33:54.951Z,5.50
2019-02-27T23:36:25.128Z,5.56
2019-02-27T23:38:55.380Z,5.59
2019-02-27T23:41:25.623Z,5.64
2019-02-27T23:43:55.991Z,5.65
2019-02-27T23:46:26.031Z,5.66
2019-02-27T23:48:56.410Z,5.68
2019-02-27T23:51:26.590Z,5.66
2019-02-27T23:53:58.601Z,5.60
2019-02-27T23:56:28.630Z,5.55
2019-02-27T23:59:02.312Z,5.51
